createdAt,value
2023-05-14T00:00:05.390Z,102318.40
2023-05-14T00:02:55.066Z,102316.45
2023-05-14T00:05:23.427Z,102315.23
2023-05-14T00:07:51.442Z,102316.27
2023-05-14T00:10:22.174Z,102314.69
2023-05-14T00:12:52.078Z,102309.59
2023-05-14T00:15:20.202Z,102309.23
2023-05-14T00:17:48.359Z,102310.98
2023-05-14T00:20:16.446Z,102308.86
2023-05-14T00:22:44.635Z,102306.40
2023-05-14T00:25:12.623Z,102312.70
2023-05-14T00:27:40.903Z,102310.77
2023-05-14T00:30:09.567Z,102312.34
2023-05-14T00:32:37.767Z,102315.48
2023-05-14T00:35:06.454Z,102315.84
2023-05-14T00:37:34.427Z,102315.48
2023-05-14T00:40:02.384Z,102316.00
2023-05-14T00:42:30.349Z,102312.48
2023-05-14T00:44:58.317Z,102313.52
2023-05-14T00:47:27.288Z,102312.81
2023-05-14T00:49:55.530Z,102312.27
2023-05-14T00:52:23.654Z,102312.95
2023-05-14T00:54:52.298Z,102313.29
2023-05-14T00:57:22.111Z,102308.37
2023-05-14T00:59:50.890Z,102305.55
2023-05-14T01:02:19.140Z,102303.08
2023-05-14T01:04:47.216Z,102304.99
2023-05-14T01:07:33.276Z,102299.55
2023-05-14T01:10:11.976Z,102300.06
2023-05-14T01:12:48.889Z,102298.30
2023-05-14T01:15:25.751Z,102298.98
2023-05-14T01:18:00.312Z,102300.89
2023-05-14T01:20:28.541Z,102300.00
2023-05-14T01:22:56.511Z,102302.80
2023-05-14T01:25:24.744Z,102299.63
2023-05-14T01:27:58.405Z,102304.70
2023-05-14T01:30:50.838Z,102299.05
2023-05-14T01:33:21.144Z,102300.41
2023-05-14T01:35:50.962Z,102296.39
2023-05-14T01:38:20.814Z,102296.39
2023-05-14T01:40:50.797Z,102290.99
2023-05-14T01:43:19.807Z,102293.81
2023-05-14T01:45:47.958Z,102289.27
2023-05-14T01:48:16.235Z,102291.37
2023-05-14T01:50:44.197Z,102288.21
2023-05-14T01:53:12.279Z,102293.81
2023-05-14T01:55:40.328Z,102292.23
2023-05-14T01:58:08.609Z,102287.10
2023-05-14T02:00:36.729Z,102294.10
2023-05-14T02:03:04.664Z,102290.77
2023-05-14T02:05:32.719Z,102293.20
2023-05-14T02:08:00.694Z,102290.20
2023-05-14T02:10:28.659Z,102287.92
2023-05-14T02:12:56.646Z,102286.52
2023-05-14T02:15:24.901Z,102285.96
2023-05-14T02:17:53.134Z,102282.27
2023-05-14T02:20:21.336Z,102285.92
2023-05-14T02:22:49.531Z,102284.32
2023-05-14T02:25:17.695Z,102284.83
2023-05-14T02:27:45.979Z,102285.33
2023-05-14T02:30:14.345Z,102283.04
2023-05-14T02:32:42.535Z,102282.84
2023-05-14T02:35:10.714Z,102283.88
2023-05-14T02:37:38.697Z,102281.77
2023-05-14T02:40:07.397Z,102283.15
2023-05-14T02:42:35.768Z,102280.69
2023-05-14T02:45:04.305Z,102281.89
2023-05-14T02:47:32.336Z,102284.16
2023-05-14T02:50:00.462Z,102281.34
2023-05-14T02:52:28.541Z,102282.21
2023-05-14T02:54:56.688Z,102279.93
2023-05-14T02:57:24.662Z,102280.96
2023-05-14T02:59:52.801Z,102277.29
2023-05-14T03:02:21.492Z,102279.39
2023-05-14T03:04:50.715Z,102277.98
2023-05-14T03:07:18.782Z,102282.02
2023-05-14T03:09:46.862Z,102284.48
2023-05-14T03:12:14.929Z,102287.80
2023-05-14T03:14:43.010Z,102285.35
2023-05-14T03:17:11.019Z,102288.17
2023-05-14T03:19:39.034Z,102290.29
2023-05-14T03:22:08.809Z,102288.55
2023-05-14T03:24:39.241Z,102284.00
2023-05-14T03:27:07.343Z,102285.05
2023-05-14T03:29:35.723Z,102283.48
2023-05-14T03:32:04.049Z,102285.59
2023-05-14T03:34:32.304Z,102285.23
2023-05-14T03:37:00.459Z,102278.92
2023-05-14T03:39:28.398Z,102278.75
2023-05-14T03:41:58.959Z,102278.77
2023-05-14T03:44:27.292Z,102279.13
2023-05-14T03:46:55.996Z,102275.12
2023-05-14T03:49:24.072Z,102275.30
2023-05-14T03:51:52.048Z,102277.27
2023-05-14T03:54:20.108Z,102278.34
2023-05-14T03:56:48.082Z,102277.50
2023-05-14T03:59:16.045Z,102274.91
2023-05-14T04:01:44.731Z,102274.45
2023-05-14T04:04:12.853Z,102273.80
2023-05-14T04:06:41.075Z,102275.98
2023-05-14T04:09:11.011Z,102278.73
2023-05-14T04:11:39.067Z,102278.17
2023-05-14T04:14:07.179Z,102272.52
2023-05-14T04:16:35.228Z,102275.02
2023-05-14T04:19:05.013Z,102271.89
2023-05-14T04:21:33.107Z,102268.77
2023-05-14T04:24:01.110Z,102263.11
2023-05-14T04:26:29.126Z,102259.27
2023-05-14T04:28:57.089Z,102261.29
2023-05-14T04:31:25.082Z,102252.90
2023-05-14T04:33:53.127Z,102254.63
2023-05-14T04:36:21.108Z,102248.59
2023-05-14T04:38:49.066Z,102248.76
2023-05-14T04:41:17.129Z,102241.15
2023-05-14T04:43:45.021Z,102243.61
2023-05-14T04:46:14.060Z,102238.56
2023-05-14T04:48:42.261Z,102236.65
2023-05-14T04:51:10.229Z,102240.55
2023-05-14T04:53:38.200Z,102237.74
2023-05-14T04:56:06.780Z,102235.73
2023-05-14T04:58:35.266Z,102230.83
2023-05-14T05:01:06.031Z,102229.23
2023-05-14T05:03:34.120Z,102223.52
2023-05-14T05:06:02.242Z,102221.23
2023-05-14T05:08:31.027Z,102222.69
2023-05-14T05:10:59.048Z,102218.83
2023-05-14T05:13:26.981Z,102215.98
2023-05-14T05:15:54.999Z,102215.29
2023-05-14T05:18:22.987Z,102210.90
2023-05-14T05:20:50.940Z,102211.08
2023-05-14T05:23:18.953Z,102209.18
2023-05-14T05:25:47.027Z,102210.27
2023-05-14T05:28:15.121Z,102208.36
2023-05-14T05:30:45.181Z,102206.71
2023-05-14T05:33:14.364Z,102201.06
2023-05-14T05:35:43.488Z,102199.95
2023-05-14T05:38:11.557Z,102199.74
2023-05-14T05:40:39.626Z,102195.85
2023-05-14T05:43:07.594Z,102191.48
2023-05-14T05:45:35.531Z,102191.28
2023-05-14T05:48:03.753Z,102189.96
2023-05-14T05:50:32.330Z,102185.11
2023-05-14T05:53:00.504Z,102187.69
2023-05-14T05:55:29.301Z,102189.48
2023-05-14T05:57:57.330Z,102188.12
2023-05-14T06:00:25.975Z,102189.62
2023-05-14T06:02:54.351Z,102184.63
2023-05-14T06:05:22.396Z,102182.73
2023-05-14T06:07:50.658Z,102185.84
2023-05-14T06:10:19.461Z,102187.92
2023-05-14T06:12:47.416Z,102191.96
2023-05-14T06:15:15.654Z,102188.80
2023-05-14T06:17:43.653Z,102194.00
2023-05-14T06:20:12.464Z,102191.99
2023-05-14T06:22:40.619Z,102196.20
2023-05-14T06:25:09.349Z,102193.85
2023-05-14T06:27:37.371Z,102197.19
2023-05-14T06:30:07.170Z,102199.34
2023-05-14T06:32:35.286Z,102199.59
2023-05-14T06:35:03.421Z,102201.58
2023-05-14T06:37:31.493Z,102201.48
2023-05-14T06:40:01.600Z,102198.86
2023-05-14T06:42:29.631Z,102203.98
2023-05-14T06:44:59.391Z,102205.14
2023-05-14T06:47:27.381Z,102203.89
2023-05-14T06:49:56.757Z,102197.30
2023-05-14T06:52:25.818Z,102201.52
2023-05-14T06:54:53.823Z,102205.64
2023-05-14T06:57:22.264Z,102199.44
2023-05-14T06:59:50.388Z,102198.06
2023-05-14T07:02:18.443Z,102193.94
2023-05-14T07:04:46.704Z,102195.17
2023-05-14T07:07:17.960Z,102190.30
2023-05-14T07:09:46.089Z,102192.25
2023-05-14T07:12:14.109Z,102190.19
2023-05-14T07:14:42.131Z,102190.39
2023-05-14T07:17:10.102Z,102184.42
2023-05-14T07:19:38.210Z,102182.67
2023-05-14T07:22:06.389Z,102185.34
2023-05-14T07:24:34.470Z,102179.30
2023-05-14T07:27:02.558Z,102176.14
2023-05-14T07:29:30.951Z,102173.34
2023-05-14T07:31:58.976Z,102176.14
2023-05-14T07:34:26.950Z,102170.02
2023-05-14T07:36:55.233Z,102167.86
2023-05-14T07:39:23.184Z,102164.14
2023-05-14T07:41:51.409Z,102169.44
2023-05-14T07:44:19.329Z,102167.04
2023-05-14T07:46:47.911Z,102163.23
2023-05-14T07:49:15.978Z,102163.82
2023-05-14T07:51:43.958Z,102160.21
2023-05-14T07:54:12.022Z,102155.49
2023-05-14T07:56:40.197Z,102154.86
2023-05-14T07:59:08.379Z,102153.98
2023-05-14T08:01:39.195Z,102150.39
2023-05-14T08:04:08.203Z,102149.27
2023-05-14T08:06:37.487Z,102149.15
2023-05-14T08:09:05.556Z,102147.55
2023-05-14T08:11:33.550Z,102148.98
2023-05-14T08:14:01.666Z,102145.26
2023-05-14T08:16:29.714Z,102144.77
2023-05-14T08:18:57.768Z,102145.83
2023-05-14T08:21:26.011Z,102147.31
2023-05-14T08:23:54.088Z,102144.15
2023-05-14T08:26:22.159Z,102142.15
2023-05-14T08:28:50.129Z,102141.71
2023-05-14T08:31:18.142Z,102142.20
2023-05-14T08:33:46.285Z,102139.30
2023-05-14T08:36:14.299Z,102132.67
2023-05-14T08:38:42.719Z,102130.35
2023-05-14T08:41:11.852Z,102130.77
2023-05-14T08:43:53.193Z,102126.89
2023-05-14T08:46:24.252Z,102128.05
2023-05-14T08:49:00.519Z,102117.80
2023-05-14T08:51:28.614Z,102115.79
2023-05-14T08:53:59.303Z,102105.55
2023-05-14T08:56:27.613Z,102101.90
2023-05-14T08:58:55.714Z,102104.86
2023-05-14T09:01:24.165Z,102101.73
2023-05-14T09:03:54.091Z,102096.36
2023-05-14T09:06:22.989Z,102095.86
2023-05-14T09:08:50.996Z,102097.50
2023-05-14T09:11:19.069Z,102088.79
2023-05-14T09:13:47.035Z,102086.70
2023-05-14T09:16:16.625Z,102086.35
2023-05-14T09:18:45.835Z,102075.09
2023-05-14T09:21:18.300Z,102070.00
2023-05-14T09:23:47.876Z,102070.98
2023-05-14T09:26:18.825Z,102070.67
2023-05-14T09:28:47.128Z,102069.21
2023-05-14T09:31:15.336Z,102057.88
2023-05-14T09:33:44.090Z,102061.15
2023-05-14T09:36:12.024Z,102060.45
2023-05-14T09:38:40.023Z,102060.10
2023-05-14T09:41:08.092Z,102058.19
2023-05-14T09:43:36.269Z,102051.39
2023-05-14T09:46:04.548Z,102046.69
2023-05-14T09:48:32.551Z,102048.66
2023-05-14T09:51:01.414Z,102044.39
2023-05-14T09:53:30.786Z,102040.29
2023-05-14T09:55:58.886Z,102033.77
2023-05-14T09:58:26.950Z,102028.73
2023-05-14T10:00:57.469Z,102031.13
2023-05-14T10:03:29.558Z,102025.20
2023-05-14T10:06:01.431Z,102033.95
2023-05-14T10:08:34.569Z,102028.23
2023-05-14T10:11:08.646Z,102020.86
2023-05-14T10:13:40.050Z,102017.13
2023-05-14T10:16:28.705Z,102019.61
2023-05-14T10:19:05.231Z,102015.45
2023-05-14T10:21:36.832Z,102012.59
2023-05-14T10:24:06.288Z,102008.34
2023-05-14T10:26:39.588Z,102010.75
2023-05-14T10:29:10.318Z,102005.66
2023-05-14T10:31:48.341Z,102004.23
2023-05-14T10:34:38.051Z,101996.91
2023-05-14T10:37:21.154Z,102001.44
2023-05-14T10:39:58.490Z,102000.99
2023-05-14T10:42:29.045Z,101997.01
2023-05-14T10:45:01.752Z,101994.98
2023-05-14T10:47:31.302Z,101988.34
2023-05-14T10:50:02.234Z,101982.52
2023-05-14T10:52:30.259Z,101981.49
2023-05-14T10:55:02.904Z,101982.63
2023-05-14T10:57:32.506Z,101983.60
2023-05-14T11:00:01.856Z,101975.42
2023-05-14T11:02:36.978Z,101976.86
2023-05-14T11:05:08.731Z,101971.16
2023-05-14T11:07:39.398Z,101963.37
2023-05-14T11:10:08.438Z,101964.92
2023-05-14T11:12:38.702Z,101965.38
2023-05-14T11:15:11.881Z,101960.96
2023-05-14T11:17:42.402Z,101952.91
2023-05-14T11:20:11.554Z,101952.92
2023-05-14T11:22:41.411Z,101957.91
2023-05-14T11:25:10.600Z,101950.30
2023-05-14T11:27:39.558Z,101948.57
2023-05-14T11:30:15.698Z,101948.55
2023-05-14T11:32:49.136Z,101946.67
2023-05-14T11:35:18.514Z,101945.77
2023-05-14T11:37:52.700Z,101944.44
2023-05-14T11:40:20.835Z,101932.02
2023-05-14T11:42:52.640Z,101926.64
2023-05-14T11:45:27.571Z,101918.23
2023-05-14T11:47:56.169Z,101917.76
2023-05-14T11:50:24.483Z,101913.12
2023-05-14T11:52:56.842Z,101911.48
2023-05-14T11:55:25.129Z,101907.09
2023-05-14T11:57:53.197Z,101911.13
2023-05-14T12:00:24.354Z,101906.75
2023-05-14T12:02:52.860Z,101908.41
2023-05-14T12:05:21.097Z,101908.05
2023-05-14T12:07:49.063Z,101901.10
2023-05-14T12:10:17.137Z,101897.66
2023-05-14T12:12:47.458Z,101893.60
2023-05-14T12:15:20.635Z,101890.96
2023-05-14T12:17:52.152Z,101889.30
2023-05-14T12:20:20.630Z,101888.92
2023-05-14T12:22:48.853Z,101885.89
2023-05-14T12:25:17.227Z,101883.45
2023-05-14T12:27:45.710Z,101881.86
2023-05-14T12:32:46.186Z,101876.95
2023-05-14T12:35:14.426Z,101878.45
2023-05-14T12:37:43.279Z,101874.63
2023-05-14T12:40:12.241Z,101868.77
2023-05-14T12:42:40.399Z,101866.00
2023-05-14T12:45:09.046Z,101867.73
2023-05-14T12:47:37.481Z,101868.83
2023-05-14T12:50:06.641Z,101864.77
2023-05-14T12:52:39.295Z,101863.63
2023-05-14T12:55:09.521Z,101864.61
2023-05-14T12:57:39.464Z,101869.06
2023-05-14T13:00:13.875Z,101863.42
2023-05-14T13:02:43.700Z,101867.28
2023-05-14T13:05:12.792Z,101867.44
2023-05-14T13:07:40.949Z,101873.98
2023-05-14T13:10:10.046Z,101878.08
2023-05-14T13:12:38.882Z,101883.48
2023-05-14T13:15:07.690Z,101881.55
2023-05-14T13:17:36.657Z,101873.17
2023-05-14T13:20:05.341Z,101867.63
2023-05-14T13:22:33.880Z,101860.96
2023-05-14T13:25:01.901Z,101859.14
2023-05-14T13:27:30.600Z,101858.88
2023-05-14T13:29:58.700Z,101850.40
2023-05-14T13:32:26.638Z,101849.83
2023-05-14T13:34:54.643Z,101850.00
2023-05-14T13:37:23.136Z,101842.47
2023-05-14T13:39:51.653Z,101838.41
2023-05-14T13:42:19.772Z,101836.98
2023-05-14T13:44:47.852Z,101833.39
2023-05-14T13:47:15.911Z,101826.94
2023-05-14T13:49:43.983Z,101820.02
2023-05-14T13:52:11.953Z,101816.08
2023-05-14T13:54:39.888Z,101807.16
2023-05-14T13:57:07.890Z,101804.42
2023-05-14T13:59:36.162Z,101800.34
2023-05-14T14:02:04.963Z,101796.52
2023-05-14T14:04:33.437Z,101795.48
2023-05-14T14:07:01.511Z,101791.56
2023-05-14T14:09:29.496Z,101789.90
2023-05-14T14:11:57.865Z,101793.36
2023-05-14T14:14:25.918Z,101796.96
2023-05-14T14:16:54.015Z,101788.45
2023-05-14T14:19:21.960Z,101785.39
2023-05-14T14:24:18.816Z,101777.08
2023-05-14T14:26:46.740Z,101779.45
2023-05-14T14:29:14.749Z,101779.34
2023-05-14T14:31:43.724Z,101777.04
2023-05-14T14:34:11.926Z,101775.27
2023-05-14T14:36:39.984Z,101767.86
2023-05-14T14:39:07.896Z,101767.78
2023-05-14T14:41:35.929Z,101767.36
2023-05-14T14:44:04.029Z,101766.34
2023-05-14T14:46:32.737Z,101764.06
2023-05-14T14:49:00.834Z,101763.04
2023-05-14T14:51:30.373Z,101763.53
2023-05-14T14:53:58.425Z,101762.70
2023-05-14T14:56:27.363Z,101765.42
2023-05-14T14:58:55.335Z,101763.13
2023-05-14T15:01:23.335Z,101756.15
2023-05-14T15:03:51.348Z,101754.23
2023-05-14T15:06:19.400Z,101749.44
2023-05-14T15:08:47.460Z,101744.48
2023-05-14T15:11:15.440Z,101734.08
2023-05-14T15:13:43.511Z,101728.59
2023-05-14T15:16:12.617Z,101727.66
2023-05-14T15:18:40.806Z,101727.18
2023-05-14T15:21:08.813Z,101722.23
2023-05-14T15:23:36.911Z,101715.93
2023-05-14T15:26:05.055Z,101709.78
2023-05-14T15:28:33.559Z,101709.64
2023-05-14T15:31:02.759Z,101709.33
2023-05-14T15:33:30.834Z,101711.16
2023-05-14T15:35:59.003Z,101705.79
2023-05-14T15:38:27.074Z,101708.42
2023-05-14T15:40:55.141Z,101705.43
2023-05-14T15:43:23.106Z,101709.27
2023-05-14T15:45:51.047Z,101704.46
2023-05-14T15:48:19.050Z,101702.96
2023-05-14T15:50:49.681Z,101703.14
2023-05-14T15:53:18.060Z,101695.58
2023-05-14T15:55:48.375Z,101690.45
2023-05-14T15:58:16.347Z,101689.33
2023-05-14T16:00:44.412Z,101691.78
2023-05-14T16:03:12.532Z,101692.38
2023-05-14T16:05:42.848Z,101694.27
2023-05-14T16:08:11.301Z,101698.09
2023-05-14T16:10:39.262Z,101705.55
2023-05-14T16:13:07.426Z,101697.56
2023-05-14T16:15:35.395Z,101685.65
2023-05-14T16:18:03.525Z,101677.84
2023-05-14T16:20:31.539Z,101672.60
2023-05-14T16:22:59.435Z,101668.67
2023-05-14T16:25:27.483Z,101670.30
2023-05-14T16:27:55.541Z,101669.08
2023-05-14T16:30:23.935Z,101665.09
2023-05-14T16:32:52.335Z,101661.73
2023-05-14T16:35:20.700Z,101655.94
2023-05-14T16:37:48.753Z,101650.79
2023-05-14T16:40:16.792Z,101648.14
2023-05-14T16:42:46.054Z,101648.17
2023-05-14T16:45:15.922Z,101641.98
2023-05-14T16:47:43.925Z,101644.76
2023-05-14T16:50:12.574Z,101644.41
2023-05-14T16:52:40.756Z,101648.64
2023-05-14T16:55:09.447Z,101650.14
2023-05-14T16:57:37.550Z,101643.52
2023-05-14T17:00:06.700Z,101644.34
2023-05-14T17:02:34.783Z,101641.73
2023-05-14T17:05:04.152Z,101636.51
2023-05-14T17:07:32.148Z,101630.91
2023-05-14T17:10:00.970Z,101626.13
2023-05-14T17:12:29.192Z,101628.27
2023-05-14T17:14:57.130Z,101637.10
2023-05-14T17:17:25.198Z,101641.16
2023-05-14T17:19:53.206Z,101642.32
2023-05-14T17:22:21.271Z,101644.50
2023-05-14T17:24:49.338Z,101637.63
2023-05-14T17:27:17.268Z,101636.48
2023-05-14T17:29:45.198Z,101636.37
2023-05-14T17:32:13.530Z,101638.87
2023-05-14T17:34:41.727Z,101639.45
2023-05-14T17:37:09.802Z,101640.95
2023-05-14T17:39:37.829Z,101642.18
2023-05-14T17:42:07.119Z,101645.89
2023-05-14T17:44:36.481Z,101643.56
2023-05-14T17:47:04.946Z,101641.79
2023-05-14T17:49:32.973Z,101637.02
2023-05-14T17:52:01.449Z,101632.77
2023-05-14T17:54:29.577Z,101637.61
2023-05-14T17:56:57.643Z,101637.53
2023-05-14T17:59:25.713Z,101633.33
2023-05-14T18:01:53.748Z,101634.50
2023-05-14T18:04:21.963Z,101629.47
2023-05-14T18:06:49.959Z,101630.17
2023-05-14T18:09:18.009Z,101627.67
2023-05-14T18:11:45.977Z,101624.27
2023-05-14T18:14:14.224Z,101634.46
2023-05-14T18:16:42.913Z,101629.14
2023-05-14T18:19:11.684Z,101629.13
2023-05-14T18:21:39.895Z,101629.99
2023-05-14T18:24:08.661Z,101632.70
2023-05-14T18:26:36.752Z,101633.34
2023-05-14T18:29:05.033Z,101635.57
2023-05-14T18:31:33.097Z,101639.23
2023-05-14T18:34:01.268Z,101635.33
2023-05-14T18:36:29.317Z,101637.80
2023-05-14T18:38:57.408Z,101632.98
2023-05-14T18:41:25.430Z,101632.65
2023-05-14T18:43:53.452Z,101632.68
2023-05-14T18:46:21.607Z,101628.74
2023-05-14T18:48:50.715Z,101630.33
2023-05-14T18:51:18.787Z,101629.21
2023-05-14T18:53:46.716Z,101631.05
2023-05-14T18:56:14.756Z,101633.40
2023-05-14T18:58:42.796Z,101633.66
2023-05-14T19:01:10.919Z,101633.25
2023-05-14T19:03:40.328Z,101634.27
2023-05-14T19:06:08.546Z,101632.95
2023-05-14T19:08:36.613Z,101636.04
2023-05-14T19:11:04.705Z,101632.73
2023-05-14T19:13:32.750Z,101637.59
2023-05-14T19:16:00.924Z,101632.48
2023-05-14T19:18:28.991Z,101631.59
2023-05-14T19:20:57.325Z,101629.42
2023-05-14T19:23:25.548Z,101627.30
2023-05-14T19:25:53.613Z,101626.77
2023-05-14T19:28:21.689Z,101622.36
2023-05-14T19:30:51.321Z,101621.13
2023-05-14T19:33:19.772Z,101620.77
2023-05-14T19:35:47.837Z,101618.83
2023-05-14T19:38:16.285Z,101618.08
2023-05-14T19:40:45.124Z,101615.41
2023-05-14T19:43:13.697Z,101616.34
2023-05-14T19:45:42.878Z,101619.58
2023-05-14T19:48:12.642Z,101614.91
2023-05-14T19:50:41.682Z,101615.54
2023-05-14T19:53:09.756Z,101614.08
2023-05-14T19:55:38.002Z,101611.23
2023-05-14T19:58:06.321Z,101609.20
2023-05-14T20:00:34.501Z,101610.17
2023-05-14T20:03:03.525Z,101610.19
2023-05-14T20:05:34.513Z,101611.31
2023-05-14T20:08:03.938Z,101614.52
2023-05-14T20:10:32.192Z,101608.42
2023-05-14T20:13:00.198Z,101610.40
2023-05-14T20:15:28.331Z,101609.91
2023-05-14T20:17:56.478Z,101609.08
2023-05-14T20:20:24.806Z,101607.61
2023-05-14T20:22:53.758Z,101608.60
2023-05-14T20:25:22.039Z,101609.40
2023-05-14T20:27:50.420Z,101604.85
2023-05-14T20:30:19.005Z,101609.66
2023-05-14T20:32:47.017Z,101608.41
2023-05-14T20:35:15.249Z,101603.05
2023-05-14T20:37:43.326Z,101602.69
2023-05-14T20:40:14.684Z,101600.35
2023-05-14T20:42:42.844Z,101595.73
2023-05-14T20:45:11.221Z,101596.59
2023-05-14T20:47:40.413Z,101596.55
2023-05-14T20:50:08.955Z,101594.77
2023-05-14T20:52:37.075Z,101593.34
2023-05-14T20:55:07.689Z,101593.73
2023-05-14T20:57:35.878Z,101589.31
2023-05-14T21:00:08.231Z,101589.74
2023-05-14T21:02:36.584Z,101588.02
2023-05-14T21:05:05.388Z,101587.55
2023-05-14T21:07:33.692Z,101585.63
2023-05-14T21:10:02.059Z,101583.15
2023-05-14T21:12:30.038Z,101578.22
2023-05-14T21:14:58.009Z,101577.33
2023-05-14T21:17:26.112Z,101571.73
2023-05-14T21:19:54.250Z,101570.55
2023-05-14T21:22:22.710Z,101573.80
2023-05-14T21:24:51.526Z,101570.23
2023-05-14T21:27:19.549Z,101568.11
2023-05-14T21:29:47.754Z,101570.27
2023-05-14T21:32:15.919Z,101570.17
2023-05-14T21:34:43.902Z,101569.18
2023-05-14T21:37:12.120Z,101566.97
2023-05-14T21:39:40.054Z,101561.77
2023-05-14T21:42:08.586Z,101560.60
2023-05-14T21:44:36.686Z,101557.55
2023-05-14T21:47:05.750Z,101559.27
2023-05-14T21:49:33.858Z,101556.41
2023-05-14T21:52:02.022Z,101554.36
2023-05-14T21:54:30.209Z,101553.78
2023-05-14T21:56:58.262Z,101548.05
2023-05-14T21:59:26.147Z,101549.72
2023-05-14T22:04:24.931Z,101544.27
2023-05-14T22:06:53.002Z,101543.63
2023-05-14T22:09:20.969Z,101543.30
2023-05-14T22:11:48.943Z,101542.61
2023-05-14T22:14:17.428Z,101543.13
2023-05-14T22:16:45.641Z,101540.81
2023-05-14T22:19:15.979Z,101542.04
2023-05-14T22:21:44.136Z,101543.48
2023-05-14T22:24:12.262Z,101540.16
2023-05-14T22:26:40.661Z,101539.63
2023-05-14T22:29:08.648Z,101540.38
2023-05-14T22:31:36.835Z,101539.09
2023-05-14T22:34:04.847Z,101535.37
2023-05-14T22:36:32.861Z,101534.63
2023-05-14T22:39:01.104Z,101532.98
2023-05-14T22:41:29.480Z,101531.21
2023-05-14T22:43:57.451Z,101534.14
2023-05-14T22:46:25.659Z,101533.03
2023-05-14T22:48:53.792Z,101525.06
2023-05-14T22:51:21.713Z,101523.15
2023-05-14T22:53:49.727Z,101519.12
2023-05-14T22:56:17.892Z,101514.31
2023-05-14T22:58:45.961Z,101514.18
2023-05-14T23:01:14.001Z,101512.36
2023-05-14T23:03:42.190Z,101509.80
2023-05-14T23:06:10.481Z,101506.38
2023-05-14T23:08:38.424Z,101506.11
2023-05-14T23:11:06.518Z,101501.63
2023-05-14T23:13:34.594Z,101494.46
2023-05-14T23:16:02.922Z,101495.73
2023-05-14T23:18:31.165Z,101494.15
2023-05-14T23:20:59.308Z,101486.46
2023-05-14T23:23:27.277Z,101482.91
2023-05-14T23:25:56.164Z,101481.20
2023-05-14T23:28:24.240Z,101475.73
2023-05-14T23:30:52.174Z,101470.20
2023-05-14T23:33:20.115Z,101469.52
2023-05-14T23:35:48.532Z,101464.61
2023-05-14T23:38:16.828Z,101466.78
2023-05-14T23:40:44.903Z,101459.95
2023-05-14T23:43:13.074Z,101455.65
2023-05-14T23:45:41.059Z,101448.65
2023-05-14T23:48:09.333Z,101444.48
2023-05-14T23:50:38.302Z,101440.45
2023-05-14T23:53:06.377Z,101435.13
2023-05-14T23:55:34.338Z,101432.55
2023-05-14T23:58:02.310Z,101427.95
